Laval-Ouest, Canada
Current Conditions -  °F | °C
As of 1:00 AM on Friday 28 Nov 2014 (Local Time) from CYUL Reporting Station
Overcast Overcast  
Wind Chill: 25°   Ceiling: 8000
Heat Index: 25°   Visibility: 15mi
Dew Point: 18°   Wind: 3mph
Humidity: 74%   Direction: 270°W
Pressure: 30.04"   Gusts: NA
Location:  45.55°N, 73.87°W
Report Text: CYUL 280600Z 27003KT 15SM FEW015 FEW045 OVC080 M04/M08 A3004 RMK SF1SC1AS7 SF TR SLP175
Loading
Personal Weather Stations






























Interactive Weather Map New forecast layout! Learn more

10-Day Weather Forecast

Advertisements
Track Severe Weather on mobile